Time;durP1;ratioP1;P1;durP2;ratioP2;P2;SDS_P1;SDS_P2;PMS_P1;PMS_P2;Temp;Humidity;BMP_temperature;BMP_pressure;BME280_temperature;BME280_humidity;BME280_pressure;Samples;Min_cycle;Max_cycle;Signal;HPM_P1;HPM_P2
2023/03/07 00:02:10;;;;;;;1.65;1.55;;;;;;;3.68;72.23;98619.19;4965954;28;20100;-53
2023/03/07 00:04:36;;;;;;;2.03;1.75;;;;;;;3.68;72.11;98614.91;4963242;28;20047;-53
2023/03/07 00:07:03;;;;;;;2.28;1.30;;;;;;;3.70;72.30;98622.59;4965717;28;20574;-52
2023/03/07 00:09:29;;;;;;;3.25;2.13;;;;;;;3.69;71.99;98615.75;4957777;28;20078;-55
2023/03/07 00:11:56;;;;;;;3.03;1.50;;;;;;;3.66;72.15;98610.63;4964215;28;20078;-54
2023/03/07 00:14:22;;;;;;;3.95;2.17;;;;;;;3.65;72.94;98604.63;4959110;28;20094;-54
2023/03/07 00:16:50;;;;;;;2.05;0.20;;;;;;;3.67;72.12;98617.44;4960079;28;20392;-54
2023/03/07 00:19:17;;;;;;;2.20;1.65;;;;;;;3.67;72.85;98596.97;4956497;28;20042;-54
2023/03/07 00:21:44;;;;;;;1.88;1.38;;;;;;;3.66;72.49;98600.38;4954970;28;20047;-51
2023/03/07 00:24:11;;;;;;;2.22;1.77;;;;;;;3.66;73.14;98596.13;4960093;28;20047;-53
2023/03/07 00:26:38;;;;;;;3.42;1.77;;;;;;;3.67;72.58;98596.97;4960247;28;20070;-55
2023/03/07 00:29:07;;;;;;;4.32;2.20;;;;;;;3.67;73.08;98599.53;4958675;28;20135;-55
2023/03/07 00:31:34;;;;;;;3.80;1.77;;;;;;;3.67;73.03;98608.06;4960479;28;20140;-53
2023/03/07 00:34:01;;;;;;;4.35;1.90;;;;;;;3.68;73.16;98596.13;4964568;28;20062;-54
2023/03/07 00:36:27;;;;;;;1.05;0.50;;;;;;;3.66;73.18;98600.38;4961618;28;20402;-52
2023/03/07 00:38:54;;;;;;;2.40;2.20;;;;;;;3.67;72.71;98602.94;4959781;28;20046;-54
2023/03/07 00:41:24;;;;;;;3.95;1.65;;;;;;;3.65;72.75;98594.41;4961810;28;20046;-55
2023/03/07 00:43:52;;;;;;;3.08;1.80;;;;;;;3.65;72.75;98598.69;4962606;28;20062;-56
2023/03/07 00:46:20;;;;;;;2.45;1.55;;;;;;;3.63;73.31;98598.69;4962486;28;20059;-55
2023/03/07 00:48:47;;;;;;;2.58;1.38;;;;;;;3.59;73.01;98592.69;4968440;28;20055;-55
2023/03/07 00:51:17;;;;;;;2.17;1.98;;;;;;;3.59;73.30;98585.00;4967532;28;20089;-54
2023/03/07 00:53:43;;;;;;;2.60;1.85;;;;;;;3.59;73.61;98590.13;4964268;28;20078;-54
2023/03/07 00:56:16;;;;;;;1.55;1.30;;;;;;;3.59;72.87;98586.72;4959902;28;20090;-53
2023/03/07 00:58:43;;;;;;;1.67;1.58;;;;;;;3.57;72.85;98586.72;4964908;28;20118;-54
2023/03/07 01:01:12;;;;;;;2.53;1.60;;;;;;;3.56;73.03;98584.16;4960898;28;20050;-54
2023/03/07 01:03:40;;;;;;;3.92;2.38;;;;;;;3.55;73.34;98578.16;4964721;28;20165;-54
2023/03/07 01:06:12;;;;;;;3.97;1.67;;;;;;;3.55;73.12;98583.28;4959466;28;20097;-53
2023/03/07 01:08:39;;;;;;;2.13;1.60;;;;;;;3.53;73.17;98579.88;4962502;28;20043;-56
2023/03/07 01:11:06;;;;;;;3.03;2.05;;;;;;;3.53;72.88;98577.31;4958005;28;20057;-54
2023/03/07 01:13:34;;;;;;;2.72;1.85;;;;;;;3.52;73.05;98577.31;4959768;28;20070;-54
2023/03/07 01:16:22;;;;;;;1.38;0.70;;;;;;;3.49;73.08;98575.59;4957429;28;20380;-54
2023/03/07 01:18:52;;;;;;;2.67;2.42;;;;;;;3.50;73.80;98571.31;4962224;28;20516;-54
2023/03/07 01:23:58;;;;;;;2.78;0.75;;;;;;;3.50;73.19;98559.38;5096008;27;20903;-52
2023/03/07 01:26:28;;;;;;;2.42;0.50;;;;;;;3.48;73.09;98550.88;5058986;28;20072;-54
2023/03/07 01:28:57;;;;;;;2.58;0.60;;;;;;;3.49;73.74;98541.47;5053041;28;20045;-53
2023/03/07 01:31:25;;;;;;;1.70;0.50;;;;;;;3.49;73.89;98551.69;5049904;28;20068;-54
2023/03/07 01:33:53;;;;;;;2.65;0.63;;;;;;;3.47;73.39;98544.00;5055627;28;20063;-54
2023/03/07 01:39:01;;;;;;;2.00;1.80;;;;;;;3.46;73.59;98537.19;5029880;28;20412;-54
2023/03/07 01:41:31;;;;;;;2.15;1.42;;;;;;;3.43;73.01;98537.19;5001733;28;20050;-55
2023/03/07 01:44:01;;;;;;;5.28;2.10;;;;;;;3.41;73.53;98542.28;5029171;28;20445;-54
2023/03/07 01:46:49;;;;;;;1.80;1.70;;;;;;;3.38;73.58;98528.66;4999651;28;20097;-53
2023/03/07 01:52:07;;;;;;;1.25;0.30;;;;;;;3.37;73.82;98526.94;5040751;27;20402;-52
2023/03/07 01:54:39;;;;;;;4.15;0.63;;;;;;;3.34;74.03;98518.41;5022623;28;20092;-56
2023/03/07 01:57:06;;;;;;;1.13;0.30;;;;;;;3.32;73.97;98519.25;5036792;28;20075;-55
2023/03/07 01:59:39;;;;;;;0.95;0.45;;;;;;;3.31;74.09;98517.56;5039212;28;20405;-54
2023/03/07 02:02:11;;;;;;;5.70;0.85;;;;;;;3.29;73.70;98514.13;5034950;28;20143;-54
2023/03/07 02:04:45;;;;;;;1.35;0.70;;;;;;;3.27;73.26;98511.56;5038506;28;20072;-54
2023/03/07 02:07:12;;;;;;;0.47;0.43;;;;;;;3.26;74.32;98504.75;5030534;28;20120;-53
2023/03/07 02:09:40;;;;;;;2.58;0.80;;;;;;;3.25;73.98;98500.50;5035003;28;20075;-54
2023/03/07 02:12:07;;;;;;;3.42;0.70;;;;;;;3.23;74.12;98497.06;5039954;28;20576;-55
2023/03/07 02:14:34;;;;;;;3.97;1.13;;;;;;;3.21;74.04;98496.22;5037863;28;20493;-54
2023/03/07 02:17:02;;;;;;;1.45;0.50;;;;;;;3.16;74.25;98483.41;5039063;28;20528;-54
2023/03/07 02:20:09;;;;;;;2.47;0.73;;;;;;;3.13;73.95;98485.09;5028928;28;20544;-54
2023/03/07 02:22:36;;;;;;;1.40;0.32;;;;;;;3.10;73.84;98482.53;5036855;28;20067;-54
2023/03/07 02:27:40;;;;;;;1.15;0.60;;;;;;;3.07;74.29;98483.38;5087425;27;20400;-53
2023/03/07 02:30:07;;;;;;;2.65;0.40;;;;;;;3.06;74.46;98477.41;5058874;28;20069;-52
2023/03/07 02:32:34;;;;;;;3.45;0.32;;;;;;;3.07;74.43;98473.13;5058669;28;20138;-55
2023/03/07 02:35:00;;;;;;;3.70;0.70;;;;;;;3.06;74.54;98472.28;5057494;28;20071;-54
2023/03/07 02:40:07;;;;;;;4.13;1.15;;;;;;;3.10;73.72;98473.16;5027052;27;21088;-52
2023/03/07 02:42:37;;;;;;;1.58;1.10;;;;;;;3.08;74.32;98480.81;4979001;28;20165;-52
2023/03/07 02:45:09;;;;;;;1.63;1.00;;;;;;;3.10;73.71;98477.44;4998013;28;20541;-53
2023/03/07 02:47:35;;;;;;;3.00;0.90;;;;;;;3.08;74.95;98475.69;4999743;28;20082;-53
2023/03/07 02:50:03;;;;;;;1.48;0.93;;;;;;;3.07;73.57;98474.00;5027967;28;20086;-51
2023/03/07 02:52:30;;;;;;;3.15;1.52;;;;;;;3.06;74.84;98482.53;4994136;28;20058;-53
2023/03/07 02:54:57;;;;;;;2.10;1.50;;;;;;;3.05;74.65;98473.16;4995865;28;20709;-49
2023/03/07 02:57:24;;;;;;;3.85;1.10;;;;;;;3.05;73.96;98470.59;4999656;28;20065;-55
2023/03/07 02:59:50;;;;;;;4.18;0.77;;;;;;;3.06;74.74;98471.44;5002222;28;20070;-54
2023/03/07 03:02:17;;;;;;;5.43;1.30;;;;;;;3.05;73.89;98480.81;4997889;28;20070;-55
2023/03/07 03:04:43;;;;;;;2.10;1.20;;;;;;;3.03;73.92;98476.53;4996648;28;20128;-55
2023/03/07 03:07:10;;;;;;;6.28;1.10;;;;;;;3.03;74.65;98471.41;5028160;28;20141;-54
2023/03/07 03:09:37;;;;;;;2.22;0.93;;;;;;;3.01;75.04;98468.03;4998823;28;20093;-55
2023/03/07 03:12:03;;;;;;;3.35;0.90;;;;;;;3.00;74.72;98477.38;5009592;28;20053;-53
2023/03/07 03:14:31;;;;;;;1.95;0.98;;;;;;;3.00;74.61;98476.56;5020345;28;20123;-54
2023/03/07 03:16:57;;;;;;;5.78;1.65;;;;;;;2.99;73.83;98475.69;4997528;28;20409;-53
2023/03/07 03:19:24;;;;;;;5.22;0.70;;;;;;;2.99;75.00;98485.91;5011065;28;20111;-53
2023/03/07 03:21:51;;;;;;;2.70;1.02;;;;;;;2.99;74.88;98480.81;5012536;28;20101;-51
2023/03/07 03:24:17;;;;;;;1.38;0.82;;;;;;;2.98;73.88;98474.00;5015358;28;20081;-52
2023/03/07 03:26:44;;;;;;;1.90;1.17;;;;;;;2.96;74.17;98475.66;5013455;28;20553;-55
2023/03/07 03:29:10;;;;;;;4.15;1.35;;;;;;;2.95;74.69;98473.97;5013940;28;20077;-52
2023/03/07 03:31:37;;;;;;;6.13;1.30;;;;;;;2.95;74.73;98468.84;5019236;28;20137;-54
2023/03/07 03:34:04;;;;;;;2.65;0.90;;;;;;;2.96;74.48;98470.56;5001911;28;20042;-53
2023/03/07 03:36:31;;;;;;;4.38;1.15;;;;;;;2.96;75.18;98465.44;4998415;28;20665;-53
2023/03/07 03:38:58;;;;;;;1.63;1.10;;;;;;;2.97;74.27;98462.03;5017657;28;20078;-53
2023/03/07 03:41:25;;;;;;;3.78;1.65;;;;;;;2.95;73.98;98464.56;5022525;28;20630;-53
2023/03/07 03:43:52;;;;;;;5.35;1.05;;;;;;;2.96;74.55;98460.31;5019798;28;20096;-51
2023/03/07 03:46:19;;;;;;;2.75;1.30;;;;;;;2.96;74.74;98460.31;5013082;28;20155;-52
2023/03/07 03:48:54;;;;;;;5.38;1.25;;;;;;;2.95;74.57;98458.63;5016110;28;20049;-55
2023/03/07 03:51:22;;;;;;;1.70;1.23;;;;;;;2.97;73.83;98467.13;5004278;28;20509;-53
2023/03/07 03:53:49;;;;;;;6.10;1.02;;;;;;;2.96;74.08;98465.44;5002644;28;20053;-53
2023/03/07 03:56:19;;;;;;;4.13;1.23;;;;;;;2.96;74.35;98462.88;4993235;28;20050;-55
2023/03/07 03:58:48;;;;;;;3.75;1.00;;;;;;;2.96;74.04;98455.22;4999263;28;20421;-51
2023/03/07 04:01:15;;;;;;;7.13;1.42;;;;;;;2.94;73.96;98455.19;5002210;28;20046;-54
2023/03/07 04:03:44;;;;;;;4.68;1.35;;;;;;;2.95;74.24;98448.41;5001079;28;20461;-52
2023/03/07 04:06:13;;;;;;;4.20;0.93;;;;;;;2.93;74.16;98445.84;5002509;28;20077;-54
2023/03/07 04:08:40;;;;;;;6.53;1.58;;;;;;;2.94;73.94;98451.81;5004182;28;20038;-51
2023/03/07 04:11:07;;;;;;;2.50;1.00;;;;;;;2.94;74.04;98451.81;5004625;28;20046;-50
2023/03/07 04:13:35;;;;;;;4.50;1.83;;;;;;;2.93;74.92;98450.06;5003707;28;20129;-53
2023/03/07 04:16:02;;;;;;;8.82;1.83;;;;;;;2.93;75.01;98444.97;5001692;28;20050;-52
2023/03/07 04:18:28;;;;;;;4.80;1.30;;;;;;;2.91;73.98;98446.69;5000166;28;20432;-52
2023/03/07 04:20:56;;;;;;;4.57;1.45;;;;;;;2.91;75.30;98446.69;4999830;28;20068;-54
2023/03/07 04:23:23;;;;;;;4.78;1.55;;;;;;;2.92;74.19;98445.81;5005988;28;20153;-52
2023/03/07 04:25:54;;;;;;;2.33;1.13;;;;;;;2.90;74.10;98445.81;4999872;28;20387;-51
2023/03/07 04:28:23;;;;;;;5.05;1.48;;;;;;;2.90;75.12;98444.97;4999271;28;20057;-53
2023/03/07 04:30:51;;;;;;;5.82;1.70;;;;;;;2.89;74.79;98438.13;4997909;28;20081;-52
2023/03/07 04:33:19;;;;;;;6.63;1.70;;;;;;;2.90;75.40;98444.97;5030938;28;20077;-51
2023/03/07 04:35:45;;;;;;;5.78;1.33;;;;;;;2.89;75.04;98448.38;5002896;28;20045;-52
2023/03/07 04:38:13;;;;;;;4.97;1.52;;;;;;;2.87;74.71;98439.84;5003025;28;20429;-54
2023/03/07 04:40:40;;;;;;;2.45;1.02;;;;;;;2.86;74.11;98443.25;5002244;28;20834;-51
2023/03/07 04:43:07;;;;;;;4.88;1.70;;;;;;;2.81;74.62;98436.41;4993617;28;20456;-52
2023/03/07 04:45:36;;;;;;;3.92;1.05;;;;;;;2.83;74.34;98439.84;4988504;28;20541;-52
2023/03/07 04:48:03;;;;;;;2.88;1.13;;;;;;;2.81;74.40;98444.09;4983869;28;20070;-53
2023/03/07 04:50:30;;;;;;;2.20;1.13;;;;;;;2.81;74.96;98446.63;5001872;28;20041;-53
2023/03/07 04:52:57;;;;;;;2.45;1.23;;;;;;;2.81;74.45;98436.41;5004549;28;20043;-52
2023/03/07 04:55:23;;;;;;;2.78;1.23;;;;;;;2.79;75.02;98427.91;5003238;28;20042;-54
2023/03/07 04:57:50;;;;;;;3.10;1.65;;;;;;;2.79;74.33;98427.91;5004514;28;20081;-54
2023/03/07 05:00:18;;;;;;;4.40;1.25;;;;;;;2.78;75.01;98425.34;5003227;28;20662;-54
2023/03/07 05:02:47;;;;;;;3.08;1.50;;;;;;;2.77;75.14;98421.06;5001139;28;20042;-54
2023/03/07 05:05:14;;;;;;;4.60;1.23;;;;;;;2.77;74.61;98424.47;4998150;28;20069;-54
2023/03/07 05:07:41;;;;;;;4.78;1.27;;;;;;;2.76;75.18;98427.88;4999860;28;21294;-53
2023/03/07 05:10:08;;;;;;;6.15;1.10;;;;;;;2.75;74.99;98426.19;5000647;28;20074;-52
2023/03/07 05:12:35;;;;;;;2.10;1.20;;;;;;;2.75;75.13;98431.28;5002652;28;20050;-52
2023/03/07 05:15:02;;;;;;;5.03;1.63;;;;;;;2.74;75.54;98429.59;5003481;28;20085;-53
2023/03/07 05:17:30;;;;;;;8.60;1.35;;;;;;;2.75;74.66;98425.31;4997630;28;20115;-54
2023/03/07 05:19:56;;;;;;;3.53;1.00;;;;;;;2.74;74.29;98434.72;5001131;28;20456;-54
2023/03/07 05:22:23;;;;;;;6.40;1.95;;;;;;;2.73;74.25;98427.88;5000805;28;20119;-52
2023/03/07 05:24:49;;;;;;;2.72;1.67;;;;;;;2.71;74.47;98424.47;4998334;28;20058;-50
2023/03/07 05:27:16;;;;;;;6.60;2.10;;;;;;;2.69;74.46;98427.03;5002319;28;20061;-50
2023/03/07 05:29:43;;;;;;;8.00;1.52;;;;;;;2.67;74.78;98430.44;4984198;28;20503;-54
2023/03/07 05:32:10;;;;;;;2.67;1.40;;;;;;;2.65;74.32;98427.88;5000322;28;20049;-55
2023/03/07 05:34:37;;;;;;;2.70;1.75;;;;;;;2.64;74.82;98427.84;4987072;28;20514;-54
2023/03/07 05:37:04;;;;;;;5.07;1.40;;;;;;;2.64;75.21;98427.84;4993426;28;20077;-51
2023/03/07 05:39:31;;;;;;;5.82;1.73;;;;;;;2.64;74.98;98433.81;5005162;28;20045;-53
2023/03/07 05:41:57;;;;;;;4.40;1.40;;;;;;;2.64;75.74;98427.84;5002414;28;20238;-54
2023/03/07 05:44:24;;;;;;;3.85;1.80;;;;;;;2.64;75.84;98427.84;5002074;28;20069;-53
2023/03/07 05:46:50;;;;;;;4.30;2.08;;;;;;;2.63;75.71;98431.25;5000298;28;20081;-55
2023/03/07 05:49:17;;;;;;;4.63;2.42;;;;;;;2.64;75.35;98427.84;5001250;28;20038;-55
2023/03/07 05:51:44;;;;;;;3.70;2.28;;;;;;;2.65;74.92;98427.00;5000771;28;20049;-54
2023/03/07 05:54:10;;;;;;;3.88;1.77;;;;;;;2.64;75.13;98432.97;4998571;28;20042;-54
2023/03/07 05:56:37;;;;;;;7.50;2.15;;;;;;;2.66;75.63;98436.38;5001047;28;20127;-53
2023/03/07 05:59:06;;;;;;;2.85;1.92;;;;;;;2.68;75.53;98437.25;4999543;28;20088;-55
2023/03/07 06:01:33;;;;;;;4.30;1.83;;;;;;;2.69;75.11;98426.16;4999699;28;20081;-54
2023/03/07 06:04:00;;;;;;;4.10;2.05;;;;;;;2.70;74.69;98431.28;5001771;28;20046;-54
2023/03/07 06:06:26;;;;;;;3.60;2.38;;;;;;;2.73;75.57;98438.09;5001762;28;20104;-52
2023/03/07 06:08:53;;;;;;;5.97;2.17;;;;;;;2.74;75.13;98438.97;5003873;28;20082;-52
2023/03/07 06:11:19;;;;;;;3.50;1.67;;;;;;;2.74;75.81;98437.28;5000855;28;20132;-51
2023/03/07 06:13:46;;;;;;;9.27;1.50;;;;;;;2.75;75.63;98436.41;4998277;28;20127;-54
2023/03/07 06:16:13;;;;;;;7.85;2.00;;;;;;;2.76;75.55;98442.34;4991914;28;20046;-54
2023/03/07 06:18:39;;;;;;;4.35;1.63;;;;;;;2.75;75.00;98451.75;4996339;28;20165;-54
2023/03/07 06:21:07;;;;;;;3.90;1.40;;;;;;;2.75;76.03;98459.44;5000039;28;20077;-53
2023/03/07 06:23:35;;;;;;;5.38;1.70;;;;;;;2.76;74.49;98457.69;4999473;28;20155;-53
2023/03/07 06:26:02;;;;;;;6.13;1.67;;;;;;;2.74;75.26;98460.28;5004074;28;20123;-53
2023/03/07 06:28:29;;;;;;;5.55;1.65;;;;;;;2.74;75.77;98460.28;4982808;28;20151;-53
2023/03/07 06:30:58;;;;;;;4.45;1.90;;;;;;;2.73;74.90;98463.66;4988715;28;20125;-51
2023/03/07 06:33:25;;;;;;;2.65;1.45;;;;;;;2.73;75.50;98463.66;4998966;28;20072;-55
2023/03/07 06:35:51;;;;;;;4.22;1.70;;;;;;;2.74;75.66;98454.31;5000672;28;20050;-54
2023/03/07 06:38:18;;;;;;;3.83;1.30;;;;;;;2.75;75.54;98451.75;5003388;28;20069;-53
2023/03/07 06:40:54;;;;;;;3.70;1.75;;;;;;;2.76;74.98;98458.56;4999845;28;20142;-55
2023/03/07 06:43:20;;;;;;;4.65;1.35;;;;;;;2.78;75.33;98467.09;4990382;28;20053;-54
2023/03/07 06:45:47;;;;;;;3.22;1.77;;;;;;;2.78;76.07;98471.34;4989715;28;20502;-52
2023/03/07 06:48:13;;;;;;;3.85;1.30;;;;;;;2.79;75.06;98458.59;5001638;28;20050;-53
2023/03/07 06:50:40;;;;;;;3.53;1.33;;;;;;;2.78;74.84;98462.00;5005921;28;20038;-52
2023/03/07 06:53:06;;;;;;;8.10;1.90;;;;;;;2.79;75.82;98452.59;4999852;28;20050;-51
2023/03/07 06:55:33;;;;;;;3.47;1.45;;;;;;;2.80;75.01;98455.16;5000686;28;20532;-55
2023/03/07 06:57:59;;;;;;;6.20;1.55;;;;;;;2.80;75.54;98455.16;4996621;28;20051;-53
2023/03/07 07:00:26;;;;;;;5.40;2.17;;;;;;;2.81;74.91;98459.44;4999878;28;20057;-53
2023/03/07 07:02:53;;;;;;;5.60;2.13;;;;;;;2.78;74.95;98456.88;5000477;28;20092;-56
2023/03/07 07:05:20;;;;;;;3.78;2.47;;;;;;;2.79;74.59;98458.59;5002697;28;20585;-53
2023/03/07 07:07:46;;;;;;;6.70;2.50;;;;;;;2.79;74.60;98461.13;4997489;28;20084;-55
2023/03/07 07:10:13;;;;;;;5.78;2.17;;;;;;;2.79;74.16;98473.94;5000011;28;20096;-54
2023/03/07 07:12:39;;;;;;;4.68;2.17;;;;;;;2.79;74.08;98478.16;4999287;28;20042;-54
2023/03/07 07:15:07;;;;;;;4.65;1.95;;;;;;;2.78;74.45;98486.69;4996505;28;20493;-54
2023/03/07 07:17:35;;;;;;;6.88;2.33;;;;;;;2.75;74.98;98481.56;4996823;28;20073;-52
2023/03/07 07:20:04;;;;;;;4.43;2.35;;;;;;;2.72;73.86;98487.53;5000019;28;20038;-52
2023/03/07 07:22:31;;;;;;;3.67;1.73;;;;;;;2.70;73.95;98489.22;4993669;28;20107;-51
2023/03/07 07:24:58;;;;;;;7.10;2.10;;;;;;;2.68;74.71;98484.13;5000520;28;20072;-54
2023/03/07 07:27:24;;;;;;;4.22;1.52;;;;;;;2.66;74.44;98483.25;5006309;28;20506;-54
2023/03/07 07:29:51;;;;;;;4.32;1.90;;;;;;;2.64;73.62;98484.09;5009142;28;20049;-54
2023/03/07 07:32:18;;;;;;;3.70;2.03;;;;;;;2.62;74.50;98478.97;5002684;28;20413;-53
2023/03/07 07:34:45;;;;;;;3.80;1.98;;;;;;;2.65;74.43;98490.91;5000086;28;20462;-56
2023/03/07 07:37:11;;;;;;;5.30;1.77;;;;;;;2.63;73.33;98488.34;5007809;28;20622;-52
2023/03/07 07:39:42;;;;;;;4.72;1.95;;;;;;;2.64;73.32;98489.22;5004773;28;20094;-55
2023/03/07 07:42:10;;;;;;;6.00;1.98;;;;;;;2.60;73.47;98487.50;5005098;28;20041;-55
2023/03/07 07:44:36;;;;;;;4.18;1.88;;;;;;;2.60;72.75;98497.72;5008480;28;20124;-51
2023/03/07 07:47:03;;;;;;;3.47;1.83;;;;;;;2.55;73.21;98495.13;5006128;28;20053;-53
2023/03/07 07:49:30;;;;;;;3.72;2.10;;;;;;;2.55;73.94;98500.25;4999910;28;20650;-51
2023/03/07 07:51:56;;;;;;;1.65;1.02;;;;;;;2.52;73.44;98498.53;5000328;28;20099;-55
2023/03/07 07:54:23;;;;;;;2.05;1.00;;;;;;;2.53;73.51;98507.06;4987714;28;20073;-52
2023/03/07 07:56:50;;;;;;;3.05;1.20;;;;;;;2.53;72.59;98513.00;5002139;28;20125;-54
2023/03/07 07:59:16;;;;;;;3.53;1.15;;;;;;;2.54;73.33;98509.59;5002184;28;20042;-54
2023/03/07 08:01:43;;;;;;;4.68;2.55;;;;;;;2.53;73.87;98505.34;5003090;28;20662;-54
2023/03/07 08:04:10;;;;;;;2.88;1.50;;;;;;;2.57;72.54;98511.34;5000466;28;20042;-55
2023/03/07 08:06:37;;;;;;;3.55;1.23;;;;;;;2.59;73.58;98513.88;5003036;28;20497;-54
2023/03/07 08:09:04;;;;;;;3.05;1.08;;;;;;;2.62;73.04;98506.22;5006102;28;20046;-54
2023/03/07 08:11:31;;;;;;;2.42;1.08;;;;;;;2.70;72.94;98505.41;4999470;28;20046;-51
2023/03/07 08:13:58;;;;;;;4.90;1.13;;;;;;;2.90;73.03;98516.59;4978905;28;20075;-53
2023/03/07 08:16:24;;;;;;;2.13;0.85;;;;;;;3.06;72.21;98513.22;4998132;28;20070;-54
2023/03/07 08:18:55;;;;;;;3.17;1.25;;;;;;;3.16;72.60;98503.88;4993100;28;20149;-53
2023/03/07 08:21:23;;;;;;;3.30;1.65;;;;;;;3.28;72.88;98518.38;4983133;28;20070;-54
2023/03/07 08:23:50;;;;;;;1.77;1.27;;;;;;;3.36;71.77;98520.09;4986604;28;20050;-56
2023/03/07 08:26:17;;;;;;;1.95;0.70;;;;;;;3.49;71.98;98516.72;4986311;28;20124;-55
2023/03/07 08:28:44;;;;;;;1.65;0.80;;;;;;;3.72;72.06;98513.34;5001088;28;20137;-54
2023/03/07 08:31:14;;;;;;;2.05;1.02;;;;;;;3.94;71.45;98519.31;5001445;28;20141;-55
2023/03/07 08:33:41;;;;;;;2.10;1.23;;;;;;;4.05;70.57;98521.84;4991265;28;20081;-54
2023/03/07 08:36:08;;;;;;;1.50;0.85;;;;;;;4.07;70.49;98520.16;4984705;28;20046;-55
2023/03/07 08:38:35;;;;;;;1.88;1.38;;;;;;;4.09;70.49;98528.69;5003748;28;20054;-55
2023/03/07 08:41:03;;;;;;;2.05;1.02;;;;;;;4.05;70.11;98532.09;4983056;28;20089;-53
2023/03/07 08:43:31;;;;;;;2.15;0.73;;;;;;;4.01;69.91;98522.72;4996038;28;20053;-51
2023/03/07 08:45:59;;;;;;;2.95;0.93;;;;;;;3.94;70.27;98526.13;4996721;28;20049;-51
2023/03/07 08:48:25;;;;;;;1.95;1.13;;;;;;;3.88;70.30;98533.84;5016422;28;20092;-53
2023/03/07 08:50:53;;;;;;;3.72;0.85;;;;;;;3.80;70.17;98529.56;5000908;28;20077;-54
2023/03/07 08:53:21;;;;;;;1.70;0.82;;;;;;;3.79;70.72;98530.41;4976454;28;20042;-54
2023/03/07 08:55:48;;;;;;;1.20;0.70;;;;;;;3.82;70.74;98534.69;4995820;28;20054;-51
2023/03/07 08:58:14;;;;;;;1.48;0.73;;;;;;;4.01;71.00;98530.41;5001611;28;20070;-54
2023/03/07 09:00:41;;;;;;;1.80;0.90;;;;;;;4.46;71.01;98529.50;4995856;28;20137;-54
2023/03/07 09:03:08;;;;;;;2.08;0.60;;;;;;;5.02;70.60;98531.84;4994584;28;20057;-52
2023/03/07 09:05:38;;;;;;;2.15;0.93;;;;;;;5.46;70.80;98534.19;4974134;28;20057;-52
2023/03/07 09:08:06;;;;;;;3.25;0.85;;;;;;;5.87;70.41;98527.91;4990311;28;20139;-50
2023/03/07 09:10:33;;;;;;;1.65;0.93;;;;;;;6.32;69.79;98526.69;5000771;28;20108;-55
2023/03/07 09:13:00;;;;;;;2.47;0.80;;;;;;;6.80;68.28;98527.88;4997648;28;20551;-55
2023/03/07 09:15:27;;;;;;;1.50;0.80;;;;;;;7.37;67.17;98531.47;5003735;28;20049;-55
2023/03/07 09:17:53;;;;;;;4.32;0.70;;;;;;;8.04;64.85;98532.16;4998102;28;20145;-57
2023/03/07 09:20:20;;;;;;;4.47;1.58;;;;;;;8.76;64.15;98531.75;4996459;28;20577;-56
2023/03/07 09:22:46;;;;;;;4.20;0.88;;;;;;;9.43;63.19;98532.09;5015965;28;20084;-56
2023/03/07 09:25:13;;;;;;;2.35;0.82;;;;;;;9.73;61.19;98540.84;5003463;28;20153;-55
2023/03/07 09:27:40;;;;;;;4.10;0.88;;;;;;;9.61;60.91;98542.00;4998999;28;20100;-55
2023/03/07 09:30:07;;;;;;;5.88;0.50;;;;;;;9.28;59.66;98539.28;4999592;28;20062;-56
2023/03/07 09:32:34;;;;;;;1.52;0.70;;;;;;;9.15;60.65;98545.63;4990157;28;20077;-53
2023/03/07 09:35:00;;;;;;;2.45;0.50;;;;;;;9.45;61.36;98548.38;4985910;28;20050;-56
2023/03/07 09:37:27;;;;;;;1.15;0.40;;;;;;;9.73;60.77;98547.78;4998501;28;20050;-55
2023/03/07 09:39:54;;;;;;;2.08;0.55;;;;;;;10.02;58.88;98552.25;4996851;28;20247;-58
2023/03/07 09:42:35;;;;;;;0.90;0.55;;;;;;;10.54;59.25;98559.59;4993005;28;20139;-55
2023/03/07 09:45:28;;;;;;;1.77;0.60;;;;;;;11.32;58.70;98549.66;4986028;28;20050;-57
2023/03/07 09:50:56;;;;;;;2.85;0.75;;;;;;;12.56;55.40;98541.38;5044659;27;20907;-57
2023/03/07 09:53:38;;;;;;;2.30;0.88;;;;;;;12.87;52.99;98544.63;5004971;28;20058;-58
2023/03/07 09:56:13;;;;;;;2.67;0.77;;;;;;;12.98;53.08;98546.84;5000216;28;20690;-57
2023/03/07 09:58:46;;;;;;;2.50;0.63;;;;;;;12.65;51.35;98544.56;4999799;28;20147;-58
2023/03/07 10:01:14;;;;;;;2.95;0.65;;;;;;;12.19;51.54;98543.50;5007615;28;20076;-58
2023/03/07 10:03:53;;;;;;;3.65;0.82;;;;;;;11.76;53.15;98550.91;5004661;28;20505;-56
2023/03/07 10:06:27;;;;;;;4.07;0.80;;;;;;;11.35;53.17;98545.28;5011891;28;20060;-56
2023/03/07 10:08:54;;;;;;;1.98;0.70;;;;;;;11.08;53.70;98546.03;5002642;28;20069;-58
2023/03/07 10:11:42;;;;;;;1.70;0.68;;;;;;;10.89;53.59;98537.94;5005570;28;20042;-58
2023/03/07 10:14:38;;;;;;;2.25;0.73;;;;;;;10.38;52.97;98540.16;4999048;28;20050;-56
2023/03/07 10:19:51;;;;;;;1.40;0.47;;;;;;;9.73;52.11;98551.19;5064892;27;20759;-56
2023/03/07 10:25:25;;;;;;;2.33;0.77;;;;;;;9.50;52.16;98541.41;5025712;27;20407;-56
2023/03/07 10:28:00;;;;;;;1.45;0.65;;;;;;;9.31;53.54;98538.34;5015124;28;20505;-57
2023/03/07 10:30:31;;;;;;;4.80;0.85;;;;;;;9.19;54.15;98545.50;5015447;28;20069;-58
2023/03/07 10:32:59;;;;;;;3.67;0.70;;;;;;;9.07;54.05;98540.59;5017173;28;20046;-57
2023/03/07 10:35:39;;;;;;;1.08;0.30;;;;;;;8.80;54.25;98542.84;5007883;28;20233;-58
2023/03/07 10:38:33;;;;;;;2.08;0.82;;;;;;;8.38;53.21;98557.38;5029038;28;20060;-57
2023/03/07 10:41:10;;;;;;;1.73;1.00;;;;;;;8.39;54.73;98547.88;5007627;28;20068;-55
2023/03/07 10:43:38;;;;;;;1.73;0.90;;;;;;;8.42;55.33;98556.44;5033067;28;20054;-56
2023/03/07 10:48:47;;;;;;;2.08;0.85;;;;;;;8.56;55.36;98555.34;4992112;28;20413;-55
2023/03/07 10:53:55;;;;;;;4.10;1.23;;;;;;;8.33;55.22;98554.00;5021875;27;20410;-53
2023/03/07 10:56:22;;;;;;;3.88;1.10;;;;;;;8.23;55.53;98554.19;4997397;28;20863;-56
2023/03/07 10:59:08;;;;;;;0.95;0.82;;;;;;;8.02;55.57;98567.41;4997513;28;20143;-57
2023/03/07 11:01:38;;;;;;;1.42;0.73;;;;;;;7.87;55.93;98566.78;4993313;28;20061;-57
2023/03/07 11:04:18;;;;;;;2.58;0.73;;;;;;;7.72;56.51;98568.75;5002033;28;20140;-54
2023/03/07 11:07:00;;;;;;;2.67;1.13;;;;;;;7.56;56.45;98567.22;5003232;28;20046;-56
2023/03/07 11:09:30;;;;;;;1.20;1.05;;;;;;;7.37;57.16;98572.66;5004221;28;20097;-56
2023/03/07 11:12:18;;;;;;;4.32;1.05;;;;;;;7.30;57.15;98568.47;5001544;28;20094;-55
2023/03/07 11:14:50;;;;;;;3.38;1.33;;;;;;;7.20;57.25;98560.84;5008577;28;20532;-54
2023/03/07 11:19:56;;;;;;;2.78;1.80;;;;;;;7.07;57.02;98569.59;5060828;27;20407;-55
2023/03/07 11:25:25;;;;;;;0.80;0.77;;;;;;;6.90;56.91;98569.81;4997175;27;20417;-58
2023/03/07 11:27:54;;;;;;;3.70;0.70;;;;;;;6.86;57.96;98566.41;4985131;28;20445;-55
2023/03/07 11:52:45;;;;;;;3.53;1.10;;;;;;;6.55;56.57;98593.31;5035963;28;20415;-55
2023/03/07 12:20:54;;;;;;;3.50;0.82;;;;;;;6.54;56.20;98601.06;5048082;27;20404;-57
2023/03/07 12:23:32;;;;;;;0.90;0.57;;;;;;;6.54;56.77;98593.34;5020762;28;20143;-58
2023/03/07 12:26:05;;;;;;;1.45;0.88;;;;;;;6.61;56.53;98601.84;5019976;28;20060;-59
2023/03/07 12:28:47;;;;;;;2.17;0.63;;;;;;;6.65;56.82;98594.09;5020052;28;20139;-55
2023/03/07 12:31:35;;;;;;;2.08;1.00;;;;;;;6.68;56.82;98596.63;5020964;28;20065;-55
2023/03/07 12:37:10;;;;;;;1.40;0.90;;;;;;;6.77;56.58;98593.13;4999614;27;20400;-56
2023/03/07 12:39:59;;;;;;;1.88;1.10;;;;;;;6.70;55.57;98588.91;5018875;28;20136;-58
2023/03/07 12:42:52;;;;;;;6.45;1.38;;;;;;;6.65;55.25;98599.22;4997879;28;23226;-57
2023/03/07 12:45:22;;;;;;;1.60;1.10;;;;;;;6.64;55.58;98597.53;5025686;28;20129;-57
2023/03/07 12:50:38;;;;;;;3.83;0.98;;;;;;;6.63;55.95;98605.25;5023001;27;20411;-56
2023/03/07 12:56:24;;;;;;;2.53;2.25;;;;;;;6.56;54.77;98599.31;5085140;27;20775;-55
2023/03/07 13:01:32;;;;;;;2.70;1.23;;;;;;;6.47;54.81;98604.53;5046008;27;20393;-57
2023/03/07 13:06:43;;;;;;;3.65;1.48;;;;;;;6.41;54.69;98601.16;5002707;27;21002;-57
2023/03/07 13:09:20;;;;;;;5.55;1.92;;;;;;;6.39;54.73;98607.19;5013046;28;20218;-58
2023/03/07 13:12:06;;;;;;;;;;;;;;;6.31;55.61;98604.69;5016007;28;20073;-58
2023/03/07 13:14:39;;;;;;;1.77;1.15;;;;;;;6.26;55.13;98609.03;5006314;28;20019;-57
2023/03/07 13:23:20;;;;;;;6.90;2.47;;;;;;;6.24;56.08;98609.03;5081377;27;20404;-58
2023/03/07 13:25:55;;;;;;;3.95;3.50;;;;;;;6.31;54.94;98609.81;5059126;28;20047;-55
2023/03/07 13:28:40;;;;;;;3.60;1.98;;;;;;;6.25;55.39;98603.00;5061349;28;20061;-59
2023/03/07 13:33:51;;;;;;;6.07;3.13;;;;;;;6.52;56.04;98610.53;5038734;28;20405;-55
2023/03/07 13:39:37;;;;;;;5.97;1.75;;;;;;;6.66;54.09;98600.91;5011044;28;20403;-55